sensor_id;sensor_type;location;lat;lon;timestamp;P1;durP1;ratioP1;P2;durP2;ratioP2
64060;SDS011;60147;55.036;73.242;2023-04-23T00:00:40;4.18;;;2.28;;
64060;SDS011;60147;55.036;73.242;2023-04-23T00:03:07;6.43;;;2.20;;
64060;SDS011;60147;55.036;73.242;2023-04-23T00:05:58;5.60;;;2.42;;
64060;SDS011;60147;55.036;73.242;2023-04-23T00:08:25;5.43;;;2.42;;
64060;SDS011;60147;55.036;73.242;2023-04-23T00:10:56;4.07;;;2.30;;
64060;SDS011;60147;55.036;73.242;2023-04-23T00:13:22;3.95;;;2.40;;
64060;SDS011;60147;55.036;73.242;2023-04-23T00:15:48;4.55;;;2.22;;
64060;SDS011;60147;55.036;73.242;2023-04-23T00:18:14;5.80;;;2.30;;
64060;SDS011;60147;55.036;73.242;2023-04-23T00:20:59;4.50;;;2.40;;
64060;SDS011;60147;55.036;73.242;2023-04-23T00:23:30;5.68;;;2.20;;
64060;SDS011;60147;55.036;73.242;2023-04-23T00:25:56;8.73;;;2.50;;
64060;SDS011;60147;55.036;73.242;2023-04-23T00:28:41;7.50;;;2.20;;
64060;SDS011;60147;55.036;73.242;2023-04-23T00:31:06;3.70;;;2.15;;
64060;SDS011;60147;55.036;73.242;2023-04-23T00:33:32;3.88;;;2.20;;
64060;SDS011;60147;55.036;73.242;2023-04-23T00:35:58;5.05;;;2.25;;
64060;SDS011;60147;55.036;73.242;2023-04-23T00:38:24;6.50;;;2.70;;
64060;SDS011;60147;55.036;73.242;2023-04-23T00:40:51;4.35;;;2.10;;
64060;SDS011;60147;55.036;73.242;2023-04-23T00:43:17;7.38;;;2.38;;
64060;SDS011;60147;55.036;73.242;2023-04-23T00:45:43;4.30;;;2.47;;
64060;SDS011;60147;55.036;73.242;2023-04-23T00:48:28;5.60;;;2.53;;
64060;SDS011;60147;55.036;73.242;2023-04-23T00:50:57;7.85;;;2.35;;
64060;SDS011;60147;55.036;73.242;2023-04-23T00:56:19;7.07;;;2.40;;
64060;SDS011;60147;55.036;73.242;2023-04-23T00:58:46;5.00;;;2.50;;
64060;SDS011;60147;55.036;73.242;2023-04-23T01:01:12;4.43;;;1.95;;
64060;SDS011;60147;55.036;73.242;2023-04-23T01:03:56;5.72;;;2.42;;
64060;SDS011;60147;55.036;73.242;2023-04-23T01:06:32;4.78;;;2.47;;
64060;SDS011;60147;55.036;73.242;2023-04-23T01:08:58;4.63;;;2.60;;
64060;SDS011;60147;55.036;73.242;2023-04-23T01:11:24;10.02;;;2.20;;
64060;SDS011;60147;55.036;73.242;2023-04-23T01:14:14;7.95;;;2.40;;
64060;SDS011;60147;55.036;73.242;2023-04-23T01:16:40;5.00;;;2.53;;
64060;SDS011;60147;55.036;73.242;2023-04-23T01:19:06;4.22;;;2.03;;
64060;SDS011;60147;55.036;73.242;2023-04-23T01:21:38;3.17;;;1.95;;
64060;SDS011;60147;55.036;73.242;2023-04-23T01:24:07;7.78;;;2.72;;
64060;SDS011;60147;55.036;73.242;2023-04-23T01:26:38;3.70;;;2.10;;
64060;SDS011;60147;55.036;73.242;2023-04-23T01:29:41;5.07;;;2.20;;
64060;SDS011;60147;55.036;73.242;2023-04-23T01:32:07;4.20;;;2.25;;
64060;SDS011;60147;55.036;73.242;2023-04-23T01:34:36;4.57;;;2.15;;
64060;SDS011;60147;55.036;73.242;2023-04-23T01:37:02;4.78;;;2.83;;
64060;SDS011;60147;55.036;73.242;2023-04-23T01:39:28;4.90;;;2.40;;
64060;SDS011;60147;55.036;73.242;2023-04-23T01:41:55;3.97;;;2.13;;
64060;SDS011;60147;55.036;73.242;2023-04-23T01:44:26;4.40;;;2.28;;
64060;SDS011;60147;55.036;73.242;2023-04-23T01:47:11;6.80;;;2.75;;
64060;SDS011;60147;55.036;73.242;2023-04-23T01:49:37;6.55;;;2.60;;
64060;SDS011;60147;55.036;73.242;2023-04-23T01:52:13;4.07;;;2.35;;
64060;SDS011;60147;55.036;73.242;2023-04-23T01:57:34;5.03;;;2.80;;
64060;SDS011;60147;55.036;73.242;2023-04-23T02:00:02;6.25;;;2.53;;
64060;SDS011;60147;55.036;73.242;2023-04-23T02:02:37;4.10;;;2.30;;
64060;SDS011;60147;55.036;73.242;2023-04-23T02:05:04;4.28;;;2.25;;
64060;SDS011;60147;55.036;73.242;2023-04-23T02:10:37;8.00;;;2.60;;
64060;SDS011;60147;55.036;73.242;2023-04-23T02:13:03;5.78;;;2.70;;
64060;SDS011;60147;55.036;73.242;2023-04-23T02:15:51;10.73;;;3.15;;
64060;SDS011;60147;55.036;73.242;2023-04-23T02:18:17;6.70;;;2.45;;
64060;SDS011;60147;55.036;73.242;2023-04-23T02:21:05;4.70;;;2.13;;
64060;SDS011;60147;55.036;73.242;2023-04-23T02:23:32;7.93;;;3.72;;
64060;SDS011;60147;55.036;73.242;2023-04-23T02:25:58;5.53;;;2.50;;
64060;SDS011;60147;55.036;73.242;2023-04-23T02:28:29;4.97;;;2.35;;
64060;SDS011;60147;55.036;73.242;2023-04-23T02:30:55;5.53;;;2.50;;
64060;SDS011;60147;55.036;73.242;2023-04-23T02:33:21;3.47;;;2.22;;
64060;SDS011;60147;55.036;73.242;2023-04-23T02:35:47;4.78;;;2.83;;
64060;SDS011;60147;55.036;73.242;2023-04-23T02:38:13;5.82;;;2.58;;
64060;SDS011;60147;55.036;73.242;2023-04-23T02:43:52;6.47;;;2.30;;
64060;SDS011;60147;55.036;73.242;2023-04-23T02:46:18;8.32;;;2.63;;
64060;SDS011;60147;55.036;73.242;2023-04-23T02:48:44;6.20;;;3.03;;
64060;SDS011;60147;55.036;73.242;2023-04-23T02:51:11;8.02;;;2.67;;
64060;SDS011;60147;55.036;73.242;2023-04-23T02:53:46;6.72;;;2.65;;
64060;SDS011;60147;55.036;73.242;2023-04-23T02:56:30;8.07;;;2.72;;
64060;SDS011;60147;55.036;73.242;2023-04-23T02:59:06;5.28;;;2.50;;
64060;SDS011;60147;55.036;73.242;2023-04-23T03:01:53;9.57;;;3.42;;
64060;SDS011;60147;55.036;73.242;2023-04-23T03:04:38;6.03;;;2.90;;
64060;SDS011;60147;55.036;73.242;2023-04-23T03:07:04;11.38;;;3.17;;
64060;SDS011;60147;55.036;73.242;2023-04-23T03:09:31;8.82;;;3.70;;
64060;SDS011;60147;55.036;73.242;2023-04-23T03:11:57;7.63;;;2.75;;
64060;SDS011;60147;55.036;73.242;2023-04-23T03:14:23;6.50;;;3.00;;
64060;SDS011;60147;55.036;73.242;2023-04-23T03:16:49;5.82;;;3.00;;
64060;SDS011;60147;55.036;73.242;2023-04-23T03:19:15;9.50;;;2.67;;
64060;SDS011;60147;55.036;73.242;2023-04-23T03:21:41;7.90;;;3.25;;
64060;SDS011;60147;55.036;73.242;2023-04-23T03:24:09;8.85;;;3.42;;
64060;SDS011;60147;55.036;73.242;2023-04-23T03:26:40;6.45;;;3.28;;
64060;SDS011;60147;55.036;73.242;2023-04-23T03:29:06;6.28;;;3.60;;
64060;SDS011;60147;55.036;73.242;2023-04-23T03:31:37;6.65;;;2.88;;
64060;SDS011;60147;55.036;73.242;2023-04-23T03:34:31;7.65;;;3.17;;
64060;SDS011;60147;55.036;73.242;2023-04-23T03:37:02;8.00;;;3.40;;
64060;SDS011;60147;55.036;73.242;2023-04-23T03:39:31;6.20;;;2.72;;
64060;SDS011;60147;55.036;73.242;2023-04-23T03:41:57;9.20;;;4.07;;
64060;SDS011;60147;55.036;73.242;2023-04-23T03:44:42;6.30;;;3.00;;
64060;SDS011;60147;55.036;73.242;2023-04-23T03:50:04;5.80;;;2.78;;
64060;SDS011;60147;55.036;73.242;2023-04-23T03:52:32;8.52;;;3.05;;
64060;SDS011;60147;55.036;73.242;2023-04-23T03:54:58;10.43;;;3.22;;
64060;SDS011;60147;55.036;73.242;2023-04-23T03:57:29;10.43;;;3.50;;
64060;SDS011;60147;55.036;73.242;2023-04-23T04:00:15;6.32;;;3.70;;
64060;SDS011;60147;55.036;73.242;2023-04-23T04:02:41;7.55;;;3.25;;
64060;SDS011;60147;55.036;73.242;2023-04-23T04:05:12;6.97;;;2.80;;
64060;SDS011;60147;55.036;73.242;2023-04-23T04:07:43;9.63;;;3.25;;
64060;SDS011;60147;55.036;73.242;2023-04-23T04:10:09;6.70;;;3.10;;
64060;SDS011;60147;55.036;73.242;2023-04-23T04:12:54;9.40;;;3.80;;
64060;SDS011;60147;55.036;73.242;2023-04-23T04:15:44;6.57;;;3.40;;
64060;SDS011;60147;55.036;73.242;2023-04-23T04:18:29;9.63;;;3.30;;
64060;SDS011;60147;55.036;73.242;2023-04-23T04:23:43;10.10;;;3.50;;
64060;SDS011;60147;55.036;73.242;2023-04-23T04:26:09;11.25;;;3.88;;
64060;SDS011;60147;55.036;73.242;2023-04-23T04:28:35;8.02;;;3.47;;
64060;SDS011;60147;55.036;73.242;2023-04-23T04:31:30;8.68;;;3.53;;
64060;SDS011;60147;55.036;73.242;2023-04-23T04:34:15;8.50;;;3.78;;
64060;SDS011;60147;55.036;73.242;2023-04-23T04:39:32;8.05;;;3.20;;
64060;SDS011;60147;55.036;73.242;2023-04-23T04:41:58;7.80;;;3.53;;
64060;SDS011;60147;55.036;73.242;2023-04-23T04:44:30;7.43;;;2.95;;
64060;SDS011;60147;55.036;73.242;2023-04-23T04:46:58;12.23;;;4.13;;
64060;SDS011;60147;55.036;73.242;2023-04-23T04:55:34;10.65;;;4.75;;
64060;SDS011;60147;55.036;73.242;2023-04-23T04:58:10;12.43;;;3.95;;
64060;SDS011;60147;55.036;73.242;2023-04-23T05:00:36;12.05;;;4.00;;
64060;SDS011;60147;55.036;73.242;2023-04-23T05:03:12;7.50;;;3.50;;
64060;SDS011;60147;55.036;73.242;2023-04-23T05:05:38;11.65;;;3.95;;
64060;SDS011;60147;55.036;73.242;2023-04-23T05:08:04;16.52;;;4.07;;
64060;SDS011;60147;55.036;73.242;2023-04-23T05:10:40;7.75;;;2.90;;
64060;SDS011;60147;55.036;73.242;2023-04-23T05:21:42;11.88;;;3.42;;
64060;SDS011;60147;55.036;73.242;2023-04-23T05:27:20;6.60;;;2.85;;
64060;SDS011;60147;55.036;73.242;2023-04-23T05:29:46;9.82;;;3.65;;
64060;SDS011;60147;55.036;73.242;2023-04-23T05:32:12;7.35;;;3.15;;
64060;SDS011;60147;55.036;73.242;2023-04-23T05:34:38;6.97;;;3.55;;
64060;SDS011;60147;55.036;73.242;2023-04-23T05:37:04;6.18;;;3.10;;
64060;SDS011;60147;55.036;73.242;2023-04-23T05:39:31;10.27;;;3.58;;
64060;SDS011;60147;55.036;73.242;2023-04-23T05:42:01;11.05;;;3.33;;
64060;SDS011;60147;55.036;73.242;2023-04-23T05:44:28;11.25;;;3.45;;
64060;SDS011;60147;55.036;73.242;2023-04-23T05:49:38;12.57;;;3.60;;
64060;SDS011;60147;55.036;73.242;2023-04-23T05:54:49;15.02;;;3.50;;
64060;SDS011;60147;55.036;73.242;2023-04-23T05:57:16;8.27;;;3.60;;
64060;SDS011;60147;55.036;73.242;2023-04-23T05:59:42;10.05;;;3.45;;
64060;SDS011;60147;55.036;73.242;2023-04-23T06:02:08;8.88;;;3.58;;
64060;SDS011;60147;55.036;73.242;2023-04-23T06:07:26;8.07;;;3.47;;
64060;SDS011;60147;55.036;73.242;2023-04-23T06:09:52;15.38;;;3.90;;
64060;SDS011;60147;55.036;73.242;2023-04-23T06:12:18;12.90;;;4.10;;
64060;SDS011;60147;55.036;73.242;2023-04-23T06:15:08;10.32;;;3.50;;
64060;SDS011;60147;55.036;73.242;2023-04-23T06:17:34;9.93;;;3.80;;
64060;SDS011;60147;55.036;73.242;2023-04-23T06:20:03;7.70;;;3.67;;
64060;SDS011;60147;55.036;73.242;2023-04-23T06:22:47;17.77;;;4.35;;
64060;SDS011;60147;55.036;73.242;2023-04-23T06:25:14;26.55;;;5.13;;
64060;SDS011;60147;55.036;73.242;2023-04-23T06:27:40;23.90;;;6.95;;
64060;SDS011;60147;55.036;73.242;2023-04-23T06:30:13;18.77;;;5.47;;
64060;SDS011;60147;55.036;73.242;2023-04-23T06:32:39;18.33;;;4.93;;
64060;SDS011;60147;55.036;73.242;2023-04-23T06:35:05;8.70;;;3.85;;
64060;SDS011;60147;55.036;73.242;2023-04-23T06:37:31;21.77;;;8.88;;
64060;SDS011;60147;55.036;73.242;2023-04-23T06:39:57;36.60;;;5.88;;
64060;SDS011;60147;55.036;73.242;2023-04-23T06:42:24;13.48;;;4.10;;
64060;SDS011;60147;55.036;73.242;2023-04-23T06:45:15;25.58;;;7.22;;
64060;SDS011;60147;55.036;73.242;2023-04-23T06:47:41;8.32;;;2.65;;
64060;SDS011;60147;55.036;73.242;2023-04-23T06:50:17;11.00;;;3.13;;
64060;SDS011;60147;55.036;73.242;2023-04-23T06:53:01;13.07;;;3.30;;
64060;SDS011;60147;55.036;73.242;2023-04-23T06:55:27;11.48;;;3.28;;
64060;SDS011;60147;55.036;73.242;2023-04-23T06:57:54;8.15;;;3.42;;
64060;SDS011;60147;55.036;73.242;2023-04-23T07:00:21;12.40;;;3.88;;
64060;SDS011;60147;55.036;73.242;2023-04-23T07:05:31;36.28;;;5.03;;
64060;SDS011;60147;55.036;73.242;2023-04-23T07:08:03;25.77;;;4.80;;
64060;SDS011;60147;55.036;73.242;2023-04-23T07:10:28;8.50;;;3.40;;
64060;SDS011;60147;55.036;73.242;2023-04-23T07:16:16;33.00;;;4.65;;
64060;SDS011;60147;55.036;73.242;2023-04-23T07:18:52;24.35;;;3.85;;
64060;SDS011;60147;55.036;73.242;2023-04-23T07:21:37;16.65;;;3.90;;
64060;SDS011;60147;55.036;73.242;2023-04-23T07:26:34;10.20;;;3.95;;
64060;SDS011;60147;55.036;73.242;2023-04-23T13:53:48;9.80;;;3.33;;
64060;SDS011;60147;55.036;73.242;2023-04-23T13:56:14;7.95;;;3.10;;
64060;SDS011;60147;55.036;73.242;2023-04-23T13:59:09;14.70;;;3.50;;
64060;SDS011;60147;55.036;73.242;2023-04-23T14:01:41;6.60;;;3.00;;
64060;SDS011;60147;55.036;73.242;2023-04-23T14:04:07;13.38;;;3.83;;
64060;SDS011;60147;55.036;73.242;2023-04-23T14:06:51;10.77;;;2.95;;
64060;SDS011;60147;55.036;73.242;2023-04-23T14:09:35;10.98;;;3.90;;
64060;SDS011;60147;55.036;73.242;2023-04-23T14:12:02;19.30;;;3.42;;
64060;SDS011;60147;55.036;73.242;2023-04-23T14:14:28;11.93;;;3.13;;
64060;SDS011;60147;55.036;73.242;2023-04-23T14:20:07;11.45;;;3.08;;
64060;SDS011;60147;55.036;73.242;2023-04-23T14:22:45;7.03;;;2.67;;
64060;SDS011;60147;55.036;73.242;2023-04-23T14:25:13;5.43;;;2.25;;
64060;SDS011;60147;55.036;73.242;2023-04-23T14:27:50;5.10;;;2.30;;
64060;SDS011;60147;55.036;73.242;2023-04-23T14:30:59;3.92;;;2.10;;
64060;SDS011;60147;55.036;73.242;2023-04-23T14:33:25;5.80;;;2.38;;
64060;SDS011;60147;55.036;73.242;2023-04-23T14:36:01;4.28;;;2.08;;
64060;SDS011;60147;55.036;73.242;2023-04-23T14:41:31;7.20;;;2.08;;
64060;SDS011;60147;55.036;73.242;2023-04-23T14:44:00;4.95;;;2.10;;
64060;SDS011;60147;55.036;73.242;2023-04-23T14:49:10;6.30;;;2.33;;
64060;SDS011;60147;55.036;73.242;2023-04-23T14:51:47;10.60;;;2.55;;
64060;SDS011;60147;55.036;73.242;2023-04-23T14:54:15;13.73;;;2.60;;
64060;SDS011;60147;55.036;73.242;2023-04-23T14:56:46;9.13;;;2.55;;
64060;SDS011;60147;55.036;73.242;2023-04-23T14:59:12;6.15;;;2.55;;
64060;SDS011;60147;55.036;73.242;2023-04-23T15:04:33;8.30;;;2.90;;
64060;SDS011;60147;55.036;73.242;2023-04-23T15:15:50;6.57;;;3.00;;
64060;SDS011;60147;55.036;73.242;2023-04-23T15:18:19;6.40;;;2.97;;
64060;SDS011;60147;55.036;73.242;2023-04-23T15:21:08;8.57;;;2.92;;
64060;SDS011;60147;55.036;73.242;2023-04-23T15:26:23;7.50;;;3.58;;
64060;SDS011;60147;55.036;73.242;2023-04-23T15:28:50;8.82;;;4.05;;
64060;SDS011;60147;55.036;73.242;2023-04-23T15:31:35;11.52;;;3.25;;
64060;SDS011;60147;55.036;73.242;2023-04-23T15:34:01;12.30;;;3.30;;
64060;SDS011;60147;55.036;73.242;2023-04-23T15:36:27;8.50;;;3.40;;
64060;SDS011;60147;55.036;73.242;2023-04-23T15:38:52;11.07;;;3.50;;
64060;SDS011;60147;55.036;73.242;2023-04-23T15:41:19;8.35;;;3.50;;
64060;SDS011;60147;55.036;73.242;2023-04-23T15:44:13;11.77;;;3.95;;
64060;SDS011;60147;55.036;73.242;2023-04-23T15:46:39;9.30;;;3.40;;
64060;SDS011;60147;55.036;73.242;2023-04-23T15:49:10;8.63;;;3.13;;
64060;SDS011;60147;55.036;73.242;2023-04-23T15:54:07;6.35;;;2.78;;
64060;SDS011;60147;55.036;73.242;2023-04-23T15:56:43;10.10;;;3.03;;
64060;SDS011;60147;55.036;73.242;2023-04-23T15:59:09;9.95;;;3.60;;
64060;SDS011;60147;55.036;73.242;2023-04-23T16:01:34;8.75;;;3.33;;
64060;SDS011;60147;55.036;73.242;2023-04-23T16:04:05;11.00;;;3.28;;
64060;SDS011;60147;55.036;73.242;2023-04-23T16:06:41;9.40;;;3.03;;
64060;SDS011;60147;55.036;73.242;2023-04-23T16:09:13;7.45;;;2.47;;
64060;SDS011;60147;55.036;73.242;2023-04-23T16:11:48;9.55;;;2.70;;
64060;SDS011;60147;55.036;73.242;2023-04-23T16:14:25;6.50;;;3.28;;
64060;SDS011;60147;55.036;73.242;2023-04-23T16:19:46;7.45;;;2.80;;
64060;SDS011;60147;55.036;73.242;2023-04-23T16:22:11;3.78;;;2.33;;
64060;SDS011;60147;55.036;73.242;2023-04-23T16:24:50;5.63;;;2.08;;
64060;SDS011;60147;55.036;73.242;2023-04-23T16:27:34;9.02;;;2.60;;
64060;SDS011;60147;55.036;73.242;2023-04-23T16:30:29;4.57;;;2.40;;
64060;SDS011;60147;55.036;73.242;2023-04-23T16:32:55;7.07;;;2.60;;
64060;SDS011;60147;55.036;73.242;2023-04-23T16:35:21;7.22;;;2.50;;
64060;SDS011;60147;55.036;73.242;2023-04-23T16:37:47;7.15;;;2.50;;
64060;SDS011;60147;55.036;73.242;2023-04-23T16:40:36;5.82;;;2.65;;
64060;SDS011;60147;55.036;73.242;2023-04-23T16:43:22;12.50;;;2.75;;
64060;SDS011;60147;55.036;73.242;2023-04-23T16:45:48;5.70;;;2.72;;
64060;SDS011;60147;55.036;73.242;2023-04-23T16:48:14;7.07;;;3.03;;
64060;SDS011;60147;55.036;73.242;2023-04-23T16:50:42;7.15;;;2.97;;
64060;SDS011;60147;55.036;73.242;2023-04-23T16:53:37;5.10;;;2.40;;
64060;SDS011;60147;55.036;73.242;2023-04-23T16:56:22;6.82;;;2.90;;
64060;SDS011;60147;55.036;73.242;2023-04-23T17:01:32;8.90;;;2.67;;
64060;SDS011;60147;55.036;73.242;2023-04-23T17:03:58;4.43;;;2.70;;
64060;SDS011;60147;55.036;73.242;2023-04-23T17:06:25;4.93;;;2.53;;
64060;SDS011;60147;55.036;73.242;2023-04-23T17:09:04;7.70;;;3.05;;
64060;SDS011;60147;55.036;73.242;2023-04-23T17:11:33;8.30;;;2.83;;
64060;SDS011;60147;55.036;73.242;2023-04-23T17:16:43;8.32;;;2.90;;
64060;SDS011;60147;55.036;73.242;2023-04-23T17:21:40;7.38;;;2.95;;
64060;SDS011;60147;55.036;73.242;2023-04-23T17:24:07;6.28;;;2.58;;
64060;SDS011;60147;55.036;73.242;2023-04-23T17:26:33;7.30;;;2.28;;
64060;SDS011;60147;55.036;73.242;2023-04-23T17:28:59;5.93;;;2.58;;
64060;SDS011;60147;55.036;73.242;2023-04-23T17:31:25;10.38;;;2.90;;
64060;SDS011;60147;55.036;73.242;2023-04-23T17:33:56;5.28;;;2.65;;
64060;SDS011;60147;55.036;73.242;2023-04-23T17:36:22;8.95;;;2.67;;
64060;SDS011;60147;55.036;73.242;2023-04-23T17:42:10;4.93;;;2.53;;
64060;SDS011;60147;55.036;73.242;2023-04-23T17:44:38;6.70;;;2.40;;
64060;SDS011;60147;55.036;73.242;2023-04-23T17:47:09;5.68;;;2.45;;
64060;SDS011;60147;55.036;73.242;2023-04-23T17:49:48;9.80;;;2.90;;
64060;SDS011;60147;55.036;73.242;2023-04-23T17:52:18;20.05;;;4.05;;
64060;SDS011;60147;55.036;73.242;2023-04-23T17:54:45;11.93;;;3.92;;
64060;SDS011;60147;55.036;73.242;2023-04-23T18:00:01;9.57;;;4.03;;
64060;SDS011;60147;55.036;73.242;2023-04-23T18:02:37;11.32;;;3.88;;
64060;SDS011;60147;55.036;73.242;2023-04-23T18:05:06;15.30;;;5.28;;
64060;SDS011;60147;55.036;73.242;2023-04-23T18:07:33;16.40;;;5.13;;
64060;SDS011;60147;55.036;73.242;2023-04-23T18:10:03;13.52;;;5.60;;
64060;SDS011;60147;55.036;73.242;2023-04-23T18:12:35;9.50;;;4.43;;
64060;SDS011;60147;55.036;73.242;2023-04-23T18:17:58;6.38;;;3.10;;
64060;SDS011;60147;55.036;73.242;2023-04-23T18:20:24;8.80;;;3.97;;
64060;SDS011;60147;55.036;73.242;2023-04-23T18:22:51;7.70;;;3.45;;
64060;SDS011;60147;55.036;73.242;2023-04-23T18:25:20;9.57;;;3.80;;
64060;SDS011;60147;55.036;73.242;2023-04-23T18:27:51;13.88;;;4.45;;
64060;SDS011;60147;55.036;73.242;2023-04-23T18:30:17;9.35;;;3.78;;
64060;SDS011;60147;55.036;73.242;2023-04-23T18:33:09;8.75;;;4.18;;
64060;SDS011;60147;55.036;73.242;2023-04-23T18:35:55;6.85;;;4.07;;
64060;SDS011;60147;55.036;73.242;2023-04-23T18:38:34;8.68;;;4.90;;
64060;SDS011;60147;55.036;73.242;2023-04-23T18:41:02;7.38;;;3.88;;
64060;SDS011;60147;55.036;73.242;2023-04-23T18:43:33;11.35;;;4.65;;
64060;SDS011;60147;55.036;73.242;2023-04-23T18:45:59;10.00;;;4.28;;
64060;SDS011;60147;55.036;73.242;2023-04-23T18:53:33;8.00;;;4.00;;
64060;SDS011;60147;55.036;73.242;2023-04-23T18:56:11;10.88;;;4.13;;
64060;SDS011;60147;55.036;73.242;2023-04-23T18:58:37;14.50;;;4.28;;
64060;SDS011;60147;55.036;73.242;2023-04-23T19:01:13;9.18;;;4.25;;
64060;SDS011;60147;55.036;73.242;2023-04-23T19:06:23;7.70;;;3.60;;
64060;SDS011;60147;55.036;73.242;2023-04-23T19:08:51;7.97;;;3.20;;
64060;SDS011;60147;55.036;73.242;2023-04-23T19:11:17;8.02;;;3.40;;
64060;SDS011;60147;55.036;73.242;2023-04-23T19:14:01;5.88;;;3.50;;
64060;SDS011;60147;55.036;73.242;2023-04-23T19:16:27;8.35;;;4.40;;
64060;SDS011;60147;55.036;73.242;2023-04-23T19:19:16;14.02;;;4.90;;
64060;SDS011;60147;55.036;73.242;2023-04-23T19:21:42;10.38;;;4.75;;
64060;SDS011;60147;55.036;73.242;2023-04-23T19:24:08;10.00;;;4.50;;
64060;SDS011;60147;55.036;73.242;2023-04-23T19:26:34;6.03;;;4.35;;
64060;SDS011;60147;55.036;73.242;2023-04-23T19:29:00;7.18;;;4.80;;
64060;SDS011;60147;55.036;73.242;2023-04-23T19:31:36;5.88;;;4.07;;
64060;SDS011;60147;55.036;73.242;2023-04-23T19:34:03;7.70;;;4.00;;
64060;SDS011;60147;55.036;73.242;2023-04-23T19:39:42;6.68;;;3.33;;
64060;SDS011;60147;55.036;73.242;2023-04-23T19:42:08;7.32;;;3.50;;
64060;SDS011;60147;55.036;73.242;2023-04-23T19:44:40;6.43;;;3.05;;
64060;SDS011;60147;55.036;73.242;2023-04-23T19:50:07;6.97;;;3.10;;
64060;SDS011;60147;55.036;73.242;2023-04-23T19:52:44;11.15;;;3.03;;
64060;SDS011;60147;55.036;73.242;2023-04-23T19:57:47;7.80;;;3.17;;
64060;SDS011;60147;55.036;73.242;2023-04-23T20:00:18;7.43;;;3.10;;
64060;SDS011;60147;55.036;73.242;2023-04-23T20:08:34;9.40;;;3.63;;
64060;SDS011;60147;55.036;73.242;2023-04-23T20:11:19;8.73;;;3.88;;
64060;SDS011;60147;55.036;73.242;2023-04-23T20:13:45;12.18;;;4.18;;
64060;SDS011;60147;55.036;73.242;2023-04-23T20:16:15;7.87;;;4.10;;
64060;SDS011;60147;55.036;73.242;2023-04-23T20:18:41;7.40;;;3.38;;
64060;SDS011;60147;55.036;73.242;2023-04-23T20:21:07;6.47;;;3.22;;
64060;SDS011;60147;55.036;73.242;2023-04-23T20:23:33;9.18;;;3.35;;
64060;SDS011;60147;55.036;73.242;2023-04-23T20:26:09;9.93;;;3.70;;
64060;SDS011;60147;55.036;73.242;2023-04-23T20:28:45;6.07;;;3.50;;
64060;SDS011;60147;55.036;73.242;2023-04-23T20:31:29;6.15;;;3.20;;
64060;SDS011;60147;55.036;73.242;2023-04-23T20:34:01;6.68;;;3.58;;
64060;SDS011;60147;55.036;73.242;2023-04-23T20:36:45;8.70;;;3.70;;
64060;SDS011;60147;55.036;73.242;2023-04-23T20:39:15;7.13;;;4.15;;
64060;SDS011;60147;55.036;73.242;2023-04-23T20:42:04;9.63;;;3.50;;
64060;SDS011;60147;55.036;73.242;2023-04-23T20:44:34;6.18;;;2.97;;
64060;SDS011;60147;55.036;73.242;2023-04-23T20:47:19;5.30;;;3.05;;
64060;SDS011;60147;55.036;73.242;2023-04-23T20:50:03;6.43;;;3.10;;
64060;SDS011;60147;55.036;73.242;2023-04-23T20:52:29;6.85;;;2.92;;
64060;SDS011;60147;55.036;73.242;2023-04-23T20:54:55;8.90;;;3.20;;
64060;SDS011;60147;55.036;73.242;2023-04-23T21:02:51;12.40;;;3.25;;
64060;SDS011;60147;55.036;73.242;2023-04-23T21:05:36;5.50;;;3.25;;
64060;SDS011;60147;55.036;73.242;2023-04-23T21:08:05;7.15;;;3.10;;
64060;SDS011;60147;55.036;73.242;2023-04-23T21:10:34;5.88;;;2.92;;
64060;SDS011;60147;55.036;73.242;2023-04-23T21:13:02;4.88;;;2.60;;
64060;SDS011;60147;55.036;73.242;2023-04-23T21:15:28;5.35;;;2.92;;
64060;SDS011;60147;55.036;73.242;2023-04-23T21:17:56;6.68;;;3.05;;
64060;SDS011;60147;55.036;73.242;2023-04-23T21:20:21;8.02;;;3.50;;
64060;SDS011;60147;55.036;73.242;2023-04-23T21:22:48;9.50;;;3.47;;
64060;SDS011;60147;55.036;73.242;2023-04-23T21:25:13;8.38;;;3.17;;
64060;SDS011;60147;55.036;73.242;2023-04-23T21:27:39;7.03;;;3.13;;
64060;SDS011;60147;55.036;73.242;2023-04-23T21:30:12;6.40;;;2.80;;
64060;SDS011;60147;55.036;73.242;2023-04-23T21:32:41;9.18;;;3.08;;
64060;SDS011;60147;55.036;73.242;2023-04-23T21:35:07;8.30;;;2.90;;
64060;SDS011;60147;55.036;73.242;2023-04-23T21:37:33;6.63;;;2.63;;
64060;SDS011;60147;55.036;73.242;2023-04-23T21:40:02;5.00;;;2.65;;
64060;SDS011;60147;55.036;73.242;2023-04-23T21:42:28;5.82;;;3.05;;
64060;SDS011;60147;55.036;73.242;2023-04-23T21:45:12;8.48;;;3.10;;
64060;SDS011;60147;55.036;73.242;2023-04-23T21:47:39;11.38;;;3.35;;
64060;SDS011;60147;55.036;73.242;2023-04-23T21:50:05;6.13;;;3.17;;
64060;SDS011;60147;55.036;73.242;2023-04-23T21:52:51;9.20;;;3.08;;
64060;SDS011;60147;55.036;73.242;2023-04-23T21:55:18;9.43;;;3.38;;
64060;SDS011;60147;55.036;73.242;2023-04-23T21:57:45;8.32;;;3.63;;
64060;SDS011;60147;55.036;73.242;2023-04-23T22:00:29;9.52;;;5.05;;
64060;SDS011;60147;55.036;73.242;2023-04-23T22:02:55;13.93;;;7.22;;
64060;SDS011;60147;55.036;73.242;2023-04-23T22:05:26;11.32;;;6.30;;
64060;SDS011;60147;55.036;73.242;2023-04-23T22:07:52;11.52;;;5.22;;
64060;SDS011;60147;55.036;73.242;2023-04-23T22:10:19;7.13;;;5.45;;
64060;SDS011;60147;55.036;73.242;2023-04-23T22:12:46;9.77;;;5.70;;
64060;SDS011;60147;55.036;73.242;2023-04-23T22:15:30;8.77;;;4.80;;
64060;SDS011;60147;55.036;73.242;2023-04-23T22:18:14;7.47;;;4.25;;
64060;SDS011;60147;55.036;73.242;2023-04-23T22:20:40;5.50;;;3.42;;
64060;SDS011;60147;55.036;73.242;2023-04-23T22:23:09;8.15;;;4.47;;
64060;SDS011;60147;55.036;73.242;2023-04-23T22:28:41;9.00;;;3.55;;
64060;SDS011;60147;55.036;73.242;2023-04-23T22:31:25;8.93;;;3.38;;
64060;SDS011;60147;55.036;73.242;2023-04-23T22:33:52;8.73;;;3.40;;
64060;SDS011;60147;55.036;73.242;2023-04-23T22:36:23;6.45;;;3.47;;
64060;SDS011;60147;55.036;73.242;2023-04-23T22:38:49;6.03;;;3.22;;
64060;SDS011;60147;55.036;73.242;2023-04-23T22:41:39;8.93;;;3.55;;
64060;SDS011;60147;55.036;73.242;2023-04-23T22:44:05;8.75;;;3.00;;
64060;SDS011;60147;55.036;73.242;2023-04-23T22:46:31;12.65;;;3.35;;
64060;SDS011;60147;55.036;73.242;2023-04-23T22:49:02;8.68;;;3.05;;
64060;SDS011;60147;55.036;73.242;2023-04-23T22:51:32;8.55;;;3.65;;
64060;SDS011;60147;55.036;73.242;2023-04-23T22:53:59;6.78;;;3.72;;
64060;SDS011;60147;55.036;73.242;2023-04-23T22:56:25;8.88;;;4.18;;
64060;SDS011;60147;55.036;73.242;2023-04-23T22:58:51;10.60;;;3.92;;
64060;SDS011;60147;55.036;73.242;2023-04-23T23:01:22;12.68;;;4.82;;
64060;SDS011;60147;55.036;73.242;2023-04-23T23:03:48;9.30;;;4.43;;
64060;SDS011;60147;55.036;73.242;2023-04-23T23:06:32;9.95;;;4.05;;
64060;SDS011;60147;55.036;73.242;2023-04-23T23:08:58;6.72;;;4.20;;
64060;SDS011;60147;55.036;73.242;2023-04-23T23:11:34;8.07;;;4.00;;
64060;SDS011;60147;55.036;73.242;2023-04-23T23:14:10;10.82;;;4.85;;
64060;SDS011;60147;55.036;73.242;2023-04-23T23:16:55;10.57;;;4.30;;
64060;SDS011;60147;55.036;73.242;2023-04-23T23:19:21;14.45;;;4.43;;
64060;SDS011;60147;55.036;73.242;2023-04-23T23:22:06;6.15;;;3.67;;
64060;SDS011;60147;55.036;73.242;2023-04-23T23:24:50;9.13;;;4.88;;
64060;SDS011;60147;55.036;73.242;2023-04-23T23:27:16;7.25;;;4.40;;
64060;SDS011;60147;55.036;73.242;2023-04-23T23:30:00;11.18;;;5.03;;
64060;SDS011;60147;55.036;73.242;2023-04-23T23:32:31;9.75;;;4.93;;